Lafayette, Indiana
Current Conditions -  °F | °C
As of 1:54 AM on Friday 28 Nov 2014 (Local Time) from KLAF Reporting Station
Clear Clear  
Wind Chill: 17°   Ceiling: Unl
Heat Index: 17°   Visibility: 10mi
Dew Point: 14°   Wind: 0mph
Humidity: 88%   Direction: NA
Pressure: 30.38"   Gusts: NA
Location:  40.42°N, 86.88°W
Report Text: KLAF 280654Z AUTO 00000KT 10SM CLR M08/M10 A3038 RMK AO2 SLP297 T10831100 TSNO
Loading
Personal Weather Stations






























Interactive Weather Map New forecast layout! Learn more

10-Day Weather Forecast

Advertisements
Track Severe Weather on mobile